Santa Angelina — D5HS5 — position and weather

sailwx.info

Track history (hours):
 
Tides and Currents Weather Stations Pressure Air Temp Water Temp Dewpoint Dewpoint Depression Visibility Wind Speed Wind Dir Waves Ship Positions

Santa Angelina

Last reported at 2017-Nov-11 14:02 UTC. Time now 2017-Nov-23 13:12 UTC.
Position N 24°15' W 018°17'.
Warning: this ship's position is 11 days out of date.

Length 189 m; draft 10.7 m.

Type: Cargo ship. MMSI: 636016769.

Date/timePositionNaut miles runAvg speedWind from/ knotsBaromVisibWave heightAir tempDewpointWater temp
2017-Nov-11 14:02N 24°15' W 018°17'012.2
2017-Nov-11 14:00N 24°16' W 018°16'912.1
2017-Nov-11 13:14N 24°24' W 018°12'312.3
2017-Nov-11 12:58N 24°27' W 018°11'612.2
2017-Nov-11 12:30N 24°32' W 018°08'612.2
2017-Nov-11 12:00N 24°38' W 018°06'612.1
2017-Nov-11 11:30N 24°43' W 018°03'612.0
2017-Nov-11 11:00N 24°49' W 018°00'7211.9
2017-Nov-11 04:55N 25°55' W 017°28'611.6
2017-Nov-11 04:24N 26°00' W 017°25'411.1
2017-Nov-11 04:00N 26°04' W 017°23'4110.9
2017-Nov-11 00:13N 26°42' W 017°04'11111.9
2017-Nov-10 14:49N 28°19' W 016°03'412.1
2017-Nov-10 14:30N 28°22' W 015°60'612.1
2017-Nov-10 14:00N 28°27' W 015°55'612.0
2017-Nov-10 13:30N 28°31' W 015°51'611.6
2017-Nov-10 12:59N 28°36' W 015°47'611.6
2017-Nov-10 12:30N 28°40' W 015°42'611.6
2017-Nov-10 12:00N 28°45' W 015°38'611.6
2017-Nov-10 11:30N 28°49' W 015°34'611.7
2017-Nov-10 11:00N 28°54' W 015°30'611.5
2017-Nov-10 10:30N 28°58' W 015°26'711.5
2017-Nov-10 09:53N 29°04' W 015°20'1211.4
2017-Nov-10 08:48N 29°15' W 015°15'311.5
2017-Nov-10 08:30N 29°18' W 015°14'611.4
2017-Nov-10 08:00N 29°24' W 015°12'611.4
2017-Nov-10 07:26N 29°30' W 015°10'611.6
2017-Nov-10 06:54N 29°36' W 015°09'511.4
2017-Nov-10 06:27N 29°41' W 015°07'511.3
2017-Nov-10 06:00N 29°46' W 015°06'611.3
2017-Nov-10 05:30N 29°52' W 015°05'611.3
2017-Nov-10 05:00N 29°57' W 015°03'611.5
2017-Nov-10 04:28N 30°03' W 015°02'611.7
2017-Nov-10 04:00N 30°08' W 015°00'611.6
2017-Nov-10 03:29N 30°14' W 014°59'611.4
2017-Nov-10 02:56N 30°20' W 014°57'811.2
2017-Nov-10 02:15N 30°28' W 014°56'311.3
2017-Nov-10 02:00N 30°31' W 014°55'7611.5
2017-Nov-09 19:25N 31°44' W 014°35'611.2
2017-Nov-09 18:52N 31°50' W 014°33'  
2017-Nov-05 11:11N 49°45' W 003°37'512.7
2017-Nov-05 10:49N 49°47' W 003°31'412.4
2017-Nov-05 10:30N 49°49' W 003°26'611.7
2017-Nov-05 10:00N 49°52' W 003°18'510.9
2017-Nov-05 09:30N 49°54' W 003°10'510.2
2017-Nov-05 09:00N 49°56' W 003°03'5 9.6
2017-Nov-05 08:30N 49°59' W 002°56'4 8.7
2017-Nov-05 08:00N 50°01' W 002°50'4 8.7
2017-Nov-05 07:30N 50°02' W 002°44'4 8.6
2017-Nov-05 07:00N 50°03' W 002°37'7 8.8
2017-Nov-05 06:15N 50°05' W 002°27'1610.1
2017-Nov-05 04:38N 50°09' W 002°03'212.1
2017-Nov-05 04:30N 50°09' W 002°00'612.6
2017-Nov-05 04:00N 50°11' W 001°51'713.8
2017-Nov-05 03:30N 50°13' W 001°41'714.5
2017-Nov-05 03:00N 50°15' W 001°30'714.8
2017-Nov-05 02:30N 50°17' W 001°18'715.0
2017-Nov-05 02:01N 50°18' W 001°07'2613.4
2017-Nov-05 00:04N 50°26' W 000°28'112.2
2017-Nov-05 00:00N 50°27' W 000°27'611.8
2017-Nov-04 23:30N 50°28' W 000°18'611.2
2017-Nov-04 23:00N 50°30' W 000°10'510.5
2017-Nov-04 22:30N 50°31' W 000°02'5 9.9
2017-Nov-04 22:00N 50°32' E 000°06'5 9.5
2017-Nov-04 21:30N 50°34' E 000°13'4 8.9
2017-Nov-04 21:00N 50°35' E 000°20'4 8.8
2017-Nov-04 20:30N 50°36' E 000°26'5 9.3
2017-Nov-04 20:00N 50°37' E 000°33'510.1
2017-Nov-04 19:30N 50°39' E 000°41'611.5
2017-Nov-04 19:00N 50°43' E 000°48'612.5
2017-Nov-04 18:30N 50°46' E 000°56'713.1
2017-Nov-04 18:00N 50°51' E 001°04'713.4
2017-Nov-04 17:29N 50°56' E 001°12'613.3
2017-Nov-04 17:00N 50°60' E 001°19'612.9
2017-Nov-04 16:30N 51°04' E 001°27'611.9
2017-Nov-04 16:00N 51°08' E 001°34'510.7
2017-Nov-04 15:30N 51°11' E 001°41'510.5
2017-Nov-04 15:00N 51°15' E 001°47'510.0
2017-Nov-04 14:30N 51°19' E 001°51'5 9.5
2017-Nov-04 14:00N 51°23' E 001°55'5 9.1
2017-Nov-04 13:30N 51°27' E 001°58'4 9.0
2017-Nov-04 13:00N 51°31' E 002°02'5 9.3
2017-Nov-04 12:30N 51°34' E 002°07'5 9.4
2017-Nov-04 12:00N 51°38' E 002°13'6 9.9
2017-Nov-04 11:25N 51°42' E 002°19'7712.2
2017-Nov-04 05:07N 52°42' E 003°37'210.8
2017-Nov-04 04:59N 52°44' E 003°39'510.7
2017-Nov-04 04:29N 52°48' E 003°44'510.6
2017-Nov-04 04:00N 52°52' E 003°49'510.3
2017-Nov-04 03:30N 52°56' E 003°55'4510.6
2017-Nov-03 23:18N 53°30' E 004°42'512.1
2017-Nov-03 22:51N 53°32' E 004°51'412.0
2017-Nov-03 22:30N 53°34' E 004°57'611.8
2017-Nov-03 21:59N 53°36' E 005°07'511.3
2017-Nov-03 21:30N 53°38' E 005°16'4210.3
2017-Nov-03 17:26N 53°50' E 006°24'610.7
2017-Nov-03 16:54N 53°51' E 006°33'4312.2
2017-Nov-03 13:21N 54°02' E 007°44'512.5
2017-Nov-03 12:58N 54°02' E 007°52'612.3
2017-Nov-03 12:30N 54°01' E 008°02'611.6
2017-Nov-03 12:00N 54°01' E 008°12'510.8
2017-Nov-03 11:30N 53°60' E 008°21'611.1
2017-Nov-03 11:00N 53°58' E 008°30'5 9.9
2017-Nov-03 10:30N 53°57' E 008°38'4 9.1
2017-Nov-03 10:00N 53°53' E 008°42'4 8.1
2017-Nov-03 09:30N 53°51' E 008°48'4 8.2
2017-Nov-03 09:00N 53°51' E 008°55'4 8.4
2017-Nov-03 08:30N 53°52' E 009°01'4 8.9
2017-Nov-03 08:00N 53°53' E 009°09'4 8.8
2017-Nov-03 07:30N 53°52' E 009°16'612.6
2017-Nov-03 07:00N 53°47' E 009°23'612.3
2017-Nov-03 06:30N 53°43' E 009°29'611.7
2017-Nov-03 06:01N 53°37' E 009°33'611.5
2017-Nov-03 05:30N 53°34' E 009°41'510.3
2017-Nov-03 05:01N 53°33' E 009°50'4 8.3
2017-Nov-03 04:31N 53°32' E 009°56'2 3.5
2017-Nov-03 03:59N 53°30' E 009°58'0 0.0
2017-Nov-03 03:29N 53°30' E 009°58'0 0.0
2017-Nov-03 02:59N 53°30' E 009°58'0 0.0
2017-Nov-03 02:29N 53°30' E 009°58'0 0.0
2017-Nov-03 01:59N 53°30' E 009°58'0 0.0
2017-Nov-03 01:29N 53°30' E 009°58'0 0.0
2017-Nov-03 00:59N 53°30' E 009°58'0 0.0
2017-Nov-03 00:29N 53°30' E 009°58'0 0.0
2017-Nov-02 23:59N 53°30' E 009°58'0 0.0
2017-Nov-02 23:29N 53°30' E 009°58'0 0.0
2017-Nov-02 22:59N 53°30' E 009°58'0 0.0
2017-Nov-02 22:29N 53°30' E 009°58'0 0.0
2017-Nov-02 21:59N 53°30' E 009°58'0 0.0
2017-Nov-02 21:29N 53°30' E 009°58'0 0.0
2017-Nov-02 20:56N 53°30' E 009°58'0 0.0
2017-Nov-02 20:29N 53°30' E 009°58'0 0.0
2017-Nov-02 19:59N 53°30' E 009°58'0 0.0
2017-Nov-02 19:29N 53°30' E 009°58'0 0.0
2017-Nov-02 18:59N 53°30' E 009°58'0 0.0
2017-Nov-02 18:29N 53°30' E 009°58'0 0.0
2017-Nov-02 17:59N 53°30' E 009°58'0 0.0
2017-Nov-02 17:29N 53°30' E 009°58'0 0.0
2017-Nov-02 16:59N 53°30' E 009°58'0 0.0
2017-Nov-02 16:29N 53°30' E 009°58'0 0.0
2017-Nov-02 15:59N 53°30' E 009°58'0 0.0
2017-Nov-02 15:29N 53°30' E 009°58'0 0.0
2017-Nov-02 14:59N 53°30' E 009°58'0 0.0
2017-Nov-02 14:29N 53°30' E 009°58'0 0.0
2017-Nov-02 13:59N 53°30' E 009°58'0 0.0
2017-Nov-02 13:29N 53°30' E 009°58'0 0.0
2017-Nov-02 12:59N 53°30' E 009°58'0 0.0
2017-Nov-02 12:29N 53°30' E 009°58'0 0.0
2017-Nov-02 11:59N 53°30' E 009°58'0 0.0
2017-Nov-02 11:29N 53°30' E 009°58'0 0.0
2017-Nov-02 10:59N 53°30' E 009°58'0 0.0
2017-Nov-02 10:29N 53°30' E 009°58'0 0.0
2017-Nov-02 09:59N 53°30' E 009°58'0 0.0
2017-Nov-02 09:29N 53°30' E 009°58'0 0.0
2017-Nov-02 08:59N 53°30' E 009°58'0 0.0
2017-Nov-02 08:29N 53°30' E 009°58'0 0.0
2017-Nov-02 07:59N 53°30' E 009°58'0 0.0
2017-Nov-02 07:29N 53°30' E 009°58'0 0.0
2017-Nov-02 06:59N 53°30' E 009°58'0 0.0
2017-Nov-02 06:29N 53°30' E 009°58'0 0.0
2017-Nov-02 05:59N 53°30' E 009°58'0 0.0
2017-Nov-02 05:29N 53°30' E 009°58'0 0.0
2017-Nov-02 04:59N 53°30' E 009°58'0 0.0
2017-Nov-02 04:29N 53°30' E 009°58'0 0.0
2017-Nov-02 03:59N 53°30' E 009°58'0 0.0
2017-Nov-02 03:29N 53°30' E 009°58'0 0.0
2017-Nov-02 02:59N 53°30' E 009°58'0 0.0
2017-Nov-02 02:29N 53°30' E 009°58'0 0.0
2017-Nov-02 01:59N 53°30' E 009°58'0 0.0
2017-Nov-02 01:29N 53°30' E 009°58'0 0.0
2017-Nov-02 00:59N 53°30' E 009°58'0 0.0
2017-Nov-02 00:29N 53°30' E 009°58'0 0.0
2017-Nov-01 23:59N 53°30' E 009°58'0 0.0
2017-Nov-01 23:26N 53°30' E 009°58'0 0.0
2017-Nov-01 22:59N 53°30' E 009°58'0 0.0
2017-Nov-01 22:29N 53°30' E 009°58'0 0.0
2017-Nov-01 21:59N 53°30' E 009°58'0 0.0
2017-Nov-01 21:29N 53°30' E 009°58'0 0.0
2017-Nov-01 20:59N 53°30' E 009°58'0 0.0
2017-Nov-01 20:29N 53°30' E 009°58'0 0.0
2017-Nov-01 19:59N 53°30' E 009°58'0 0.0
2017-Nov-01 19:29N 53°30' E 009°58'0 0.0
2017-Nov-01 18:59N 53°30' E 009°58'0 0.0
2017-Nov-01 18:29N 53°30' E 009°58'  
Track history (hours):
 
Tides and Currents Weather Stations Pressure Air Temp Water Temp Dewpoint Dewpoint Depression Visibility Wind Speed Wind Dir Waves Ship Positions

Santa Angelina

Last reported at 2017-Nov-11 14:02 UTC. Time now 2017-Nov-23 13:12 UTC.
Position N 24°15' W 018°17'.
Warning: this ship's position is 11 days out of date.

Length 189 m; draft 10.7 m.

Type: Cargo ship. MMSI: 636016769.

Date/timePositionNaut miles runAvg speedWind from/ knotsBaromVisibWave heightAir tempDewpointWater temp
2017-Nov-11 14:02N 24°15' W 018°17'012.2
2017-Nov-11 14:00N 24°16' W 018°16'912.1
2017-Nov-11 13:14N 24°24' W 018°12'312.3
2017-Nov-11 12:58N 24°27' W 018°11'612.2
2017-Nov-11 12:30N 24°32' W 018°08'612.2
2017-Nov-11 12:00N 24°38' W 018°06'612.1
2017-Nov-11 11:30N 24°43' W 018°03'612.0
2017-Nov-11 11:00N 24°49' W 018°00'7211.9
2017-Nov-11 04:55N 25°55' W 017°28'611.6
2017-Nov-11 04:24N 26°00' W 017°25'411.1
2017-Nov-11 04:00N 26°04' W 017°23'4110.9
2017-Nov-11 00:13N 26°42' W 017°04'11111.9
2017-Nov-10 14:49N 28°19' W 016°03'412.1
2017-Nov-10 14:30N 28°22' W 015°60'612.1
2017-Nov-10 14:00N 28°27' W 015°55'612.0
2017-Nov-10 13:30N 28°31' W 015°51'611.6
2017-Nov-10 12:59N 28°36' W 015°47'611.6
2017-Nov-10 12:30N 28°40' W 015°42'611.6
2017-Nov-10 12:00N 28°45' W 015°38'611.6
2017-Nov-10 11:30N 28°49' W 015°34'611.7
2017-Nov-10 11:00N 28°54' W 015°30'611.5
2017-Nov-10 10:30N 28°58' W 015°26'711.5
2017-Nov-10 09:53N 29°04' W 015°20'1211.4
2017-Nov-10 08:48N 29°15' W 015°15'311.5
2017-Nov-10 08:30N 29°18' W 015°14'611.4
2017-Nov-10 08:00N 29°24' W 015°12'611.4
2017-Nov-10 07:26N 29°30' W 015°10'611.6
2017-Nov-10 06:54N 29°36' W 015°09'511.4
2017-Nov-10 06:27N 29°41' W 015°07'511.3
2017-Nov-10 06:00N 29°46' W 015°06'611.3
2017-Nov-10 05:30N 29°52' W 015°05'611.3
2017-Nov-10 05:00N 29°57' W 015°03'611.5
2017-Nov-10 04:28N 30°03' W 015°02'611.7
2017-Nov-10 04:00N 30°08' W 015°00'611.6
2017-Nov-10 03:29N 30°14' W 014°59'611.4
2017-Nov-10 02:56N 30°20' W 014°57'811.2
2017-Nov-10 02:15N 30°28' W 014°56'311.3
2017-Nov-10 02:00N 30°31' W 014°55'7611.5
2017-Nov-09 19:25N 31°44' W 014°35'611.2
2017-Nov-09 18:52N 31°50' W 014°33'  
2017-Nov-05 11:11N 49°45' W 003°37'512.7
2017-Nov-05 10:49N 49°47' W 003°31'412.4
2017-Nov-05 10:30N 49°49' W 003°26'611.7
2017-Nov-05 10:00N 49°52' W 003°18'510.9
2017-Nov-05 09:30N 49°54' W 003°10'510.2
2017-Nov-05 09:00N 49°56' W 003°03'5 9.6
2017-Nov-05 08:30N 49°59' W 002°56'4 8.7
2017-Nov-05 08:00N 50°01' W 002°50'4 8.7
2017-Nov-05 07:30N 50°02' W 002°44'4 8.6
2017-Nov-05 07:00N 50°03' W 002°37'7 8.8
2017-Nov-05 06:15N 50°05' W 002°27'1610.1
2017-Nov-05 04:38N 50°09' W 002°03'212.1
2017-Nov-05 04:30N 50°09' W 002°00'612.6
2017-Nov-05 04:00N 50°11' W 001°51'713.8
2017-Nov-05 03:30N 50°13' W 001°41'714.5
2017-Nov-05 03:00N 50°15' W 001°30'714.8
2017-Nov-05 02:30N 50°17' W 001°18'715.0
2017-Nov-05 02:01N 50°18' W 001°07'2613.4
2017-Nov-05 00:04N 50°26' W 000°28'112.2
2017-Nov-05 00:00N 50°27' W 000°27'611.8
2017-Nov-04 23:30N 50°28' W 000°18'611.2
2017-Nov-04 23:00N 50°30' W 000°10'510.5
2017-Nov-04 22:30N 50°31' W 000°02'5 9.9
2017-Nov-04 22:00N 50°32' E 000°06'5 9.5
2017-Nov-04 21:30N 50°34' E 000°13'4 8.9
2017-Nov-04 21:00N 50°35' E 000°20'4 8.8
2017-Nov-04 20:30N 50°36' E 000°26'5 9.3
2017-Nov-04 20:00N 50°37' E 000°33'510.1
2017-Nov-04 19:30N 50°39' E 000°41'611.5
2017-Nov-04 19:00N 50°43' E 000°48'612.5
2017-Nov-04 18:30N 50°46' E 000°56'713.1
2017-Nov-04 18:00N 50°51' E 001°04'713.4
2017-Nov-04 17:29N 50°56' E 001°12'613.3
2017-Nov-04 17:00N 50°60' E 001°19'612.9
2017-Nov-04 16:30N 51°04' E 001°27'611.9
2017-Nov-04 16:00N 51°08' E 001°34'510.7
2017-Nov-04 15:30N 51°11' E 001°41'510.5
2017-Nov-04 15:00N 51°15' E 001°47'510.0
2017-Nov-04 14:30N 51°19' E 001°51'5 9.5
2017-Nov-04 14:00N 51°23' E 001°55'5 9.1
2017-Nov-04 13:30N 51°27' E 001°58'4 9.0
2017-Nov-04 13:00N 51°31' E 002°02'5 9.3
2017-Nov-04 12:30N 51°34' E 002°07'5 9.4
2017-Nov-04 12:00N 51°38' E 002°13'6 9.9
2017-Nov-04 11:25N 51°42' E 002°19'7712.2
2017-Nov-04 05:07N 52°42' E 003°37'210.8
2017-Nov-04 04:59N 52°44' E 003°39'510.7
2017-Nov-04 04:29N 52°48' E 003°44'510.6
2017-Nov-04 04:00N 52°52' E 003°49'510.3
2017-Nov-04 03:30N 52°56' E 003°55'4510.6
2017-Nov-03 23:18N 53°30' E 004°42'512.1
2017-Nov-03 22:51N 53°32' E 004°51'412.0
2017-Nov-03 22:30N 53°34' E 004°57'611.8
2017-Nov-03 21:59N 53°36' E 005°07'511.3
2017-Nov-03 21:30N 53°38' E 005°16'4210.3
2017-Nov-03 17:26N 53°50' E 006°24'610.7
2017-Nov-03 16:54N 53°51' E 006°33'4312.2
2017-Nov-03 13:21N 54°02' E 007°44'512.5
2017-Nov-03 12:58N 54°02' E 007°52'612.3
2017-Nov-03 12:30N 54°01' E 008°02'611.6
2017-Nov-03 12:00N 54°01' E 008°12'510.8
2017-Nov-03 11:30N 53°60' E 008°21'611.1
2017-Nov-03 11:00N 53°58' E 008°30'5 9.9
2017-Nov-03 10:30N 53°57' E 008°38'4 9.1
2017-Nov-03 10:00N 53°53' E 008°42'4 8.1
2017-Nov-03 09:30N 53°51' E 008°48'4 8.2
2017-Nov-03 09:00N 53°51' E 008°55'4 8.4
2017-Nov-03 08:30N 53°52' E 009°01'4 8.9
2017-Nov-03 08:00N 53°53' E 009°09'4 8.8
2017-Nov-03 07:30N 53°52' E 009°16'612.6
2017-Nov-03 07:00N 53°47' E 009°23'612.3
2017-Nov-03 06:30N 53°43' E 009°29'611.7
2017-Nov-03 06:01N 53°37' E 009°33'611.5
2017-Nov-03 05:30N 53°34' E 009°41'510.3
2017-Nov-03 05:01N 53°33' E 009°50'4 8.3
2017-Nov-03 04:31N 53°32' E 009°56'2 3.5
2017-Nov-03 03:59N 53°30' E 009°58'0 0.0
2017-Nov-03 03:29N 53°30' E 009°58'0 0.0
2017-Nov-03 02:59N 53°30' E 009°58'0 0.0
2017-Nov-03 02:29N 53°30' E 009°58'0 0.0
2017-Nov-03 01:59N 53°30' E 009°58'0 0.0
2017-Nov-03 01:29N 53°30' E 009°58'0 0.0
2017-Nov-03 00:59N 53°30' E 009°58'0 0.0
2017-Nov-03 00:29N 53°30' E 009°58'0 0.0
2017-Nov-02 23:59N 53°30' E 009°58'0 0.0
2017-Nov-02 23:29N 53°30' E 009°58'0 0.0
2017-Nov-02 22:59N 53°30' E 009°58'0 0.0
2017-Nov-02 22:29N 53°30' E 009°58'0 0.0
2017-Nov-02 21:59N 53°30' E 009°58'0 0.0
2017-Nov-02 21:29N 53°30' E 009°58'0 0.0
2017-Nov-02 20:56N 53°30' E 009°58'0 0.0
2017-Nov-02 20:29N 53°30' E 009°58'0 0.0
2017-Nov-02 19:59N 53°30' E 009°58'0 0.0
2017-Nov-02 19:29N 53°30' E 009°58'0 0.0
2017-Nov-02 18:59N 53°30' E 009°58'0 0.0
2017-Nov-02 18:29N 53°30' E 009°58'0 0.0
2017-Nov-02 17:59N 53°30' E 009°58'0 0.0
2017-Nov-02 17:29N 53°30' E 009°58'0 0.0
2017-Nov-02 16:59N 53°30' E 009°58'0 0.0
2017-Nov-02 16:29N 53°30' E 009°58'0 0.0
2017-Nov-02 15:59N 53°30' E 009°58'0 0.0
2017-Nov-02 15:29N 53°30' E 009°58'0 0.0
2017-Nov-02 14:59N 53°30' E 009°58'0 0.0
2017-Nov-02 14:29N 53°30' E 009°58'0 0.0
2017-Nov-02 13:59N 53°30' E 009°58'0 0.0
2017-Nov-02 13:29N 53°30' E 009°58'0 0.0
2017-Nov-02 12:59N 53°30' E 009°58'0 0.0
2017-Nov-02 12:29N 53°30' E 009°58'0 0.0
2017-Nov-02 11:59N 53°30' E 009°58'0 0.0
2017-Nov-02 11:29N 53°30' E 009°58'0 0.0
2017-Nov-02 10:59N 53°30' E 009°58'0 0.0
2017-Nov-02 10:29N 53°30' E 009°58'0 0.0
2017-Nov-02 09:59N 53°30' E 009°58'0 0.0
2017-Nov-02 09:29N 53°30' E 009°58'0 0.0
2017-Nov-02 08:59N 53°30' E 009°58'0 0.0
2017-Nov-02 08:29N 53°30' E 009°58'0 0.0
2017-Nov-02 07:59N 53°30' E 009°58'0 0.0
2017-Nov-02 07:29N 53°30' E 009°58'0 0.0
2017-Nov-02 06:59N 53°30' E 009°58'0 0.0
2017-Nov-02 06:29N 53°30' E 009°58'0 0.0
2017-Nov-02 05:59N 53°30' E 009°58'0 0.0
2017-Nov-02 05:29N 53°30' E 009°58'0 0.0
2017-Nov-02 04:59N 53°30' E 009°58'0 0.0
2017-Nov-02 04:29N 53°30' E 009°58'0 0.0
2017-Nov-02 03:59N 53°30' E 009°58'0 0.0
2017-Nov-02 03:29N 53°30' E 009°58'0 0.0
2017-Nov-02 02:59N 53°30' E 009°58'0 0.0
2017-Nov-02 02:29N 53°30' E 009°58'0 0.0
2017-Nov-02 01:59N 53°30' E 009°58'0 0.0
2017-Nov-02 01:29N 53°30' E 009°58'0 0.0
2017-Nov-02 00:59N 53°30' E 009°58'0 0.0
2017-Nov-02 00:29N 53°30' E 009°58'0 0.0
2017-Nov-01 23:59N 53°30' E 009°58'0 0.0
2017-Nov-01 23:26N 53°30' E 009°58'0 0.0
2017-Nov-01 22:59N 53°30' E 009°58'0 0.0
2017-Nov-01 22:29N 53°30' E 009°58'0 0.0
2017-Nov-01 21:59N 53°30' E 009°58'0 0.0
2017-Nov-01 21:29N 53°30' E 009°58'0 0.0
2017-Nov-01 20:59N 53°30' E 009°58'0 0.0
2017-Nov-01 20:29N 53°30' E 009°58'0 0.0
2017-Nov-01 19:59N 53°30' E 009°58'0 0.0
2017-Nov-01 19:29N 53°30' E 009°58'0 0.0
2017-Nov-01 18:59N 53°30' E 009°58'0 0.0
2017-Nov-01 18:29N 53°30' E 009°58'  

Dump ship's entire track history